createdAt,value
2018-08-09T00:01:36.488Z,20.48
2018-08-09T00:04:04.470Z,20.49
2018-08-09T00:06:32.505Z,20.48
2018-08-09T00:09:00.534Z,20.22
2018-08-09T00:11:28.876Z,20.29
2018-08-09T00:13:56.940Z,20.42
2018-08-09T00:16:24.942Z,20.19
2018-08-09T00:18:53.332Z,20.26
2018-08-09T00:21:21.316Z,20.44
2018-08-09T00:23:49.432Z,20.43
2018-08-09T00:26:17.429Z,20.37
2018-08-09T00:28:45.405Z,20.40
2018-08-09T00:31:13.416Z,20.27
2018-08-09T00:33:41.590Z,20.32
2018-08-09T00:36:09.588Z,20.19
2018-08-09T00:38:37.614Z,19.99
2018-08-09T00:41:05.600Z,20.02
2018-08-09T00:43:33.615Z,19.92
2018-08-09T00:46:01.621Z,20.08
2018-08-09T00:48:29.619Z,19.85
2018-08-09T00:50:57.658Z,19.95
2018-08-09T00:53:25.661Z,19.82
2018-08-09T00:55:53.732Z,19.92
2018-08-09T00:58:21.751Z,19.92
2018-08-09T01:00:49.780Z,20.00
2018-08-09T01:03:17.793Z,20.15
2018-08-09T01:05:45.798Z,20.15
2018-08-09T01:08:13.787Z,20.21
2018-08-09T01:10:41.841Z,20.23
2018-08-09T01:13:10.973Z,20.18
2018-08-09T01:15:38.972Z,20.07
2018-08-09T01:18:07.952Z,19.88
2018-08-09T01:20:36.038Z,20.03
2018-08-09T01:23:04.034Z,19.99
2018-08-09T01:25:32.038Z,20.13
2018-08-09T01:28:00.170Z,20.06
2018-08-09T01:30:28.162Z,20.12
2018-08-09T01:32:56.267Z,20.17
2018-08-09T01:35:24.208Z,20.28
2018-08-09T01:37:52.240Z,20.35
2018-08-09T01:40:20.233Z,20.36
2018-08-09T01:42:59.943Z,20.37
2018-08-09T01:45:27.934Z,20.16
2018-08-09T01:47:55.948Z,20.22
2018-08-09T01:50:23.971Z,20.25
2018-08-09T01:52:51.988Z,20.25
2018-08-09T01:55:20.044Z,20.31
2018-08-09T01:57:48.222Z,20.32
2018-08-09T02:00:16.248Z,20.37
2018-08-09T02:02:44.289Z,20.36
2018-08-09T02:05:12.336Z,20.35
2018-08-09T02:07:40.512Z,20.43
2018-08-09T02:10:08.600Z,20.46
2018-08-09T02:12:36.606Z,20.43
2018-08-09T02:15:04.876Z,20.46
2018-08-09T02:17:32.880Z,20.46
2018-08-09T02:20:00.880Z,20.38
2018-08-09T02:22:28.931Z,20.34
2018-08-09T02:24:57.109Z,20.21
2018-08-09T02:27:25.157Z,20.25
2018-08-09T02:29:53.185Z,20.23
2018-08-09T02:32:21.231Z,20.16
2018-08-09T02:34:49.221Z,20.07
2018-08-09T02:37:17.249Z,20.04
2018-08-09T02:39:45.248Z,20.09
2018-08-09T02:42:13.314Z,20.05
2018-08-09T02:44:41.417Z,20.09
2018-08-09T02:47:09.409Z,20.10
2018-08-09T02:49:37.406Z,20.10
2018-08-09T02:52:05.442Z,20.05
2018-08-09T02:54:33.453Z,19.94
2018-08-09T02:57:01.465Z,19.84
2018-08-09T02:59:29.468Z,19.79
2018-08-09T03:01:57.489Z,19.88
2018-08-09T03:04:25.523Z,19.87
2018-08-09T03:06:53.572Z,19.85
2018-08-09T03:09:21.566Z,19.79
2018-08-09T03:11:49.566Z,19.72
2018-08-09T03:14:17.557Z,19.46
2018-08-09T03:16:45.609Z,19.52
2018-08-09T03:19:13.637Z,19.50
2018-08-09T03:21:41.652Z,19.64
2018-08-09T03:24:09.772Z,19.78
2018-08-09T03:26:37.765Z,19.77
2018-08-09T03:29:05.845Z,19.74
2018-08-09T03:31:33.851Z,19.82
2018-08-09T03:34:01.840Z,19.80
2018-08-09T03:36:29.832Z,19.88
2018-08-09T03:38:57.950Z,19.77
2018-08-09T03:41:25.937Z,19.64
2018-08-09T03:43:53.960Z,19.74
2018-08-09T03:46:22.088Z,19.67
2018-08-09T03:48:50.173Z,19.64
2018-08-09T03:51:19.271Z,19.73
2018-08-09T03:53:47.824Z,19.62
2018-08-09T03:56:15.816Z,19.63
2018-08-09T03:58:43.836Z,19.78
2018-08-09T04:01:11.892Z,19.76
2018-08-09T04:03:39.936Z,19.75
2018-08-09T04:06:09.045Z,19.89
2018-08-09T04:08:37.080Z,19.82
2018-08-09T04:11:05.124Z,19.86
2018-08-09T04:13:33.128Z,19.82
2018-08-09T04:16:01.117Z,19.94
2018-08-09T04:18:29.133Z,19.83
2018-08-09T04:20:57.157Z,19.82
2018-08-09T04:23:25.165Z,19.65
2018-08-09T04:25:53.185Z,19.64
2018-08-09T04:28:21.201Z,19.74
2018-08-09T04:30:49.198Z,19.70
2018-08-09T04:33:17.227Z,19.75
2018-08-09T04:35:45.259Z,19.81
2018-08-09T04:38:13.393Z,19.60
2018-08-09T04:40:41.440Z,19.61
2018-08-09T04:43:09.471Z,19.67
2018-08-09T04:45:37.575Z,19.47
2018-08-09T04:48:05.804Z,19.43
2018-08-09T04:50:33.992Z,19.41
2018-08-09T04:53:02.272Z,19.48
2018-08-09T04:55:30.341Z,19.55
2018-08-09T04:57:58.371Z,19.59
2018-08-09T05:00:26.348Z,19.62
2018-08-09T05:02:54.465Z,19.62
2018-08-09T05:05:22.462Z,19.82
2018-08-09T05:07:50.536Z,19.88
2018-08-09T05:10:18.587Z,19.94
2018-08-09T05:12:46.524Z,19.89
2018-08-09T05:15:14.509Z,19.79
2018-08-09T05:17:42.510Z,19.89
2018-08-09T05:20:10.513Z,20.16
2018-08-09T05:22:38.521Z,20.56
2018-08-09T05:25:06.997Z,20.80
2018-08-09T05:27:35.057Z,21.20
2018-08-09T05:30:03.861Z,21.62
2018-08-09T05:32:31.848Z,21.93
2018-08-09T05:34:59.921Z,22.42
2018-08-09T05:37:27.905Z,22.41
2018-08-09T05:39:55.885Z,22.21
2018-08-09T05:42:23.884Z,22.23
2018-08-09T05:44:51.943Z,22.25
2018-08-09T05:47:19.995Z,22.40
2018-08-09T05:49:47.992Z,22.56
2018-08-09T05:52:15.988Z,22.75
2018-08-09T05:54:44.032Z,22.88
2018-08-09T05:57:12.056Z,23.48
2018-08-09T05:59:40.064Z,24.24
2018-08-09T06:02:08.171Z,25.30
2018-08-09T06:04:36.253Z,26.34
2018-08-09T06:07:04.251Z,27.43
2018-08-09T06:09:32.273Z,28.23
2018-08-09T06:12:00.267Z,28.82
2018-08-09T06:14:28.260Z,29.46
2018-08-09T06:16:56.280Z,30.14
2018-08-09T06:19:24.276Z,30.98
2018-08-09T06:21:52.257Z,31.57
2018-08-09T06:24:20.297Z,31.95
2018-08-09T06:26:48.307Z,31.75
2018-08-09T06:29:16.304Z,32.24
2018-08-09T06:31:44.309Z,32.42
2018-08-09T06:34:12.326Z,32.36
2018-08-09T06:36:40.309Z,31.73
2018-08-09T06:39:08.741Z,31.46
2018-08-09T06:41:37.004Z,31.50
2018-08-09T06:44:05.000Z,31.33
2018-08-09T06:46:32.985Z,31.27
2018-08-09T06:49:01.116Z,31.62
2018-08-09T06:51:29.136Z,31.45
2018-08-09T06:53:57.164Z,30.64
2018-08-09T06:56:25.591Z,30.11
2018-08-09T06:58:53.761Z,29.32
2018-08-09T07:01:21.816Z,28.38
2018-08-09T07:03:49.842Z,28.60
2018-08-09T07:06:17.895Z,28.81
2018-08-09T07:08:45.976Z,27.90
2018-08-09T07:11:14.005Z,27.70
2018-08-09T07:13:42.096Z,27.39
2018-08-09T07:16:10.118Z,27.55
2018-08-09T07:18:38.139Z,28.43
2018-08-09T07:21:06.436Z,29.64
2018-08-09T07:23:34.577Z,30.05
2018-08-09T07:26:02.638Z,29.92
2018-08-09T07:28:30.656Z,29.43
2018-08-09T07:30:58.696Z,29.34
2018-08-09T07:33:27.058Z,30.06
2018-08-09T07:35:55.044Z,30.78
2018-08-09T07:38:23.048Z,31.01
2018-08-09T07:40:51.036Z,31.24
2018-08-09T07:43:19.136Z,31.37
2018-08-09T07:45:47.132Z,31.83
2018-08-09T07:48:15.221Z,31.77
2018-08-09T07:50:43.220Z,31.72
2018-08-09T07:53:11.227Z,31.71
2018-08-09T07:55:39.287Z,31.57
2018-08-09T07:58:07.337Z,31.97
2018-08-09T08:00:35.344Z,31.90
2018-08-09T08:03:03.342Z,31.28
2018-08-09T08:05:31.428Z,31.30
2018-08-09T08:07:59.408Z,31.43
2018-08-09T08:10:27.417Z,31.25
2018-08-09T08:12:55.429Z,30.36
2018-08-09T08:15:23.473Z,29.70
2018-08-09T08:17:51.457Z,30.03
2018-08-09T08:20:19.448Z,30.54
2018-08-09T08:22:47.425Z,31.32
2018-08-09T08:25:15.426Z,31.48
2018-08-09T08:27:43.472Z,31.40
2018-08-09T08:30:13.184Z,31.53
2018-08-09T08:32:41.961Z,31.47
2018-08-09T08:35:10.444Z,31.41
2018-08-09T08:37:38.820Z,31.74
2018-08-09T08:40:07.229Z,31.83
2018-08-09T08:42:35.477Z,31.52
2018-08-09T08:45:04.037Z,31.26
2018-08-09T08:47:32.033Z,31.30
2018-08-09T08:50:00.018Z,31.00
2018-08-09T08:52:28.052Z,30.77
2018-08-09T08:54:56.049Z,30.99
2018-08-09T08:57:24.093Z,30.97
2018-08-09T08:59:52.118Z,30.85
2018-08-09T09:02:20.104Z,30.29
2018-08-09T09:04:48.091Z,30.69
2018-08-09T09:07:16.158Z,31.09
2018-08-09T09:09:44.147Z,31.30
2018-08-09T09:12:12.148Z,31.07
2018-08-09T09:14:40.134Z,30.61
2018-08-09T09:17:08.192Z,30.29
2018-08-09T09:19:36.185Z,29.97
2018-08-09T09:22:04.321Z,30.14
2018-08-09T09:24:32.311Z,30.00
2018-08-09T09:27:00.350Z,30.26
2018-08-09T09:29:28.285Z,30.89
2018-08-09T09:31:56.286Z,31.19
2018-08-09T09:34:24.321Z,30.31
2018-08-09T09:36:52.312Z,30.22
2018-08-09T09:39:21.304Z,30.24
2018-08-09T09:41:49.308Z,30.19
2018-08-09T09:44:17.284Z,30.37
2018-08-09T09:46:45.286Z,30.38
2018-08-09T09:49:13.325Z,30.58
2018-08-09T09:51:41.313Z,30.45
2018-08-09T09:54:09.474Z,30.33
2018-08-09T09:56:37.840Z,29.99
2018-08-09T09:59:05.850Z,29.84
2018-08-09T10:01:34.663Z,29.78
2018-08-09T10:04:03.589Z,29.78
2018-08-09T10:06:32.027Z,29.63
2018-08-09T10:09:00.074Z,29.75
2018-08-09T10:11:28.098Z,29.55
2018-08-09T10:13:56.129Z,29.68
2018-08-09T10:16:24.237Z,29.60
2018-08-09T10:18:52.189Z,29.10
2018-08-09T10:21:20.294Z,28.55
2018-08-09T10:23:48.300Z,28.50
2018-08-09T10:26:16.305Z,28.51
2018-08-09T10:28:44.325Z,28.74
2018-08-09T10:31:12.339Z,28.71
2018-08-09T10:33:40.348Z,28.77
2018-08-09T10:36:08.438Z,28.91
2018-08-09T10:38:36.480Z,28.78
2018-08-09T10:41:05.151Z,28.72
2018-08-09T10:43:33.181Z,28.31
2018-08-09T10:46:01.532Z,27.59
2018-08-09T10:48:29.820Z,27.06
2018-08-09T10:50:57.813Z,26.74
2018-08-09T10:53:25.868Z,26.23
2018-08-09T10:55:53.885Z,25.86
2018-08-09T10:58:21.876Z,25.92
2018-08-09T11:00:49.908Z,26.05
2018-08-09T11:03:17.912Z,26.43
2018-08-09T11:05:45.984Z,26.82
2018-08-09T11:08:13.976Z,27.16
2018-08-09T11:10:41.988Z,27.27
2018-08-09T11:13:09.996Z,27.52
2018-08-09T11:15:38.062Z,27.86
2018-08-09T11:18:06.060Z,28.18
2018-08-09T11:20:34.121Z,28.54
2018-08-09T11:23:02.510Z,28.60
2018-08-09T11:25:30.527Z,29.09
2018-08-09T11:27:58.535Z,29.57
2018-08-09T11:30:26.545Z,29.74
2018-08-09T11:32:54.556Z,29.75
2018-08-09T11:35:22.864Z,30.08
2018-08-09T11:37:50.956Z,30.30
2018-08-09T11:40:18.957Z,30.40
2018-08-09T11:42:46.996Z,30.35
2018-08-09T11:45:15.031Z,30.40
2018-08-09T11:47:43.048Z,30.49
2018-08-09T11:50:11.368Z,30.47
2018-08-09T11:52:39.420Z,30.49
2018-08-09T11:55:07.585Z,30.49
2018-08-09T11:57:35.601Z,30.43
2018-08-09T12:00:06.475Z,30.27
2018-08-09T12:02:34.575Z,30.23
2018-08-09T12:05:02.565Z,30.03
2018-08-09T12:07:30.580Z,29.95
2018-08-09T12:09:58.792Z,30.29
2018-08-09T12:12:26.830Z,30.43
2018-08-09T12:14:54.845Z,30.59
2018-08-09T12:17:22.868Z,30.77
2018-08-09T12:19:50.880Z,30.58
2018-08-09T12:22:18.880Z,30.70
2018-08-09T12:24:46.924Z,30.95
2018-08-09T12:27:14.953Z,31.17
2018-08-09T12:29:43.080Z,31.47
2018-08-09T12:32:11.133Z,31.75
2018-08-09T12:34:39.188Z,31.71
2018-08-09T12:37:07.415Z,31.50
2018-08-09T12:39:35.716Z,31.12
2018-08-09T12:42:03.729Z,30.97
2018-08-09T12:44:31.812Z,30.89
2018-08-09T12:46:59.828Z,31.00
2018-08-09T12:49:27.844Z,31.33
2018-08-09T12:51:55.860Z,31.38
2018-08-09T12:54:23.923Z,31.81
2018-08-09T12:56:51.921Z,32.16
2018-08-09T12:59:19.922Z,32.01
2018-08-09T13:01:47.960Z,32.07
2018-08-09T13:04:16.000Z,31.86
2018-08-09T13:06:44.100Z,31.94
2018-08-09T13:09:12.402Z,31.75
2018-08-09T13:11:40.458Z,31.84
2018-08-09T13:14:08.613Z,31.76
2018-08-09T13:16:36.603Z,31.82
2018-08-09T13:19:04.629Z,31.68
2018-08-09T13:21:32.736Z,31.66
2018-08-09T13:24:00.742Z,31.55
2018-08-09T13:26:28.748Z,31.56
2018-08-09T13:28:56.763Z,31.72
2018-08-09T13:31:24.804Z,31.75
2018-08-09T13:33:52.969Z,31.88
2018-08-09T13:36:21.080Z,32.05
2018-08-09T13:38:49.132Z,31.83
2018-08-09T13:41:17.129Z,31.77
2018-08-09T13:43:45.205Z,31.88
2018-08-09T13:46:13.201Z,32.06
2018-08-09T13:48:41.272Z,32.16
2018-08-09T13:51:09.280Z,31.93
2018-08-09T13:53:37.301Z,31.89
2018-08-09T13:56:05.381Z,31.90
2018-08-09T13:58:33.465Z,32.21
2018-08-09T14:01:01.449Z,32.13
2018-08-09T14:03:29.509Z,32.15
2018-08-09T14:05:57.668Z,31.94
2018-08-09T14:08:25.681Z,31.85
2018-08-09T14:10:53.733Z,31.84
2018-08-09T14:13:21.746Z,32.01
2018-08-09T14:15:49.740Z,32.14
2018-08-09T14:18:17.776Z,32.25
2018-08-09T14:20:45.781Z,32.41
2018-08-09T14:23:13.780Z,32.65
2018-08-09T14:25:41.864Z,32.67
2018-08-09T14:28:09.860Z,32.36
2018-08-09T14:30:37.948Z,32.47
2018-08-09T14:33:06.488Z,32.39
2018-08-09T14:35:34.505Z,32.65
2018-08-09T14:38:02.577Z,32.74
2018-08-09T14:40:30.573Z,32.65
2018-08-09T14:42:58.597Z,32.69
2018-08-09T14:45:26.633Z,32.67
2018-08-09T14:47:54.663Z,32.72
2018-08-09T14:50:22.721Z,32.72
2018-08-09T14:52:50.752Z,32.93
2018-08-09T14:55:18.769Z,32.84
2018-08-09T14:57:46.772Z,32.63
2018-08-09T15:00:20.740Z,32.48
2018-08-09T15:02:48.904Z,32.50
2018-08-09T15:05:17.344Z,32.64
2018-08-09T15:07:45.587Z,32.67
2018-08-09T15:10:14.354Z,32.57
2018-08-09T15:12:42.350Z,32.45
2018-08-09T15:15:11.180Z,32.40
2018-08-09T15:17:39.326Z,32.43
2018-08-09T15:20:09.296Z,32.43
2018-08-09T15:22:37.803Z,32.52
2018-08-09T15:25:06.677Z,32.49
2018-08-09T15:27:34.836Z,32.40
2018-08-09T15:30:02.856Z,32.41
2018-08-09T15:32:30.893Z,32.50
2018-08-09T15:34:58.920Z,32.46
2018-08-09T15:37:26.933Z,32.34
2018-08-09T15:39:54.941Z,32.27
2018-08-09T15:42:22.985Z,32.25
2018-08-09T15:44:51.026Z,32.39
2018-08-09T15:47:19.169Z,32.44
2018-08-09T15:49:47.092Z,32.42
2018-08-09T15:52:15.132Z,32.34
2018-08-09T15:54:43.124Z,32.31
2018-08-09T15:57:11.113Z,32.22
2018-08-09T15:59:39.124Z,32.14
2018-08-09T16:02:07.202Z,32.04
2018-08-09T16:04:35.189Z,31.96
2018-08-09T16:07:03.269Z,32.01
2018-08-09T16:09:31.277Z,31.83
2018-08-09T16:11:59.348Z,31.59
2018-08-09T16:14:27.357Z,31.01
2018-08-09T16:16:55.353Z,30.32
2018-08-09T16:19:23.457Z,29.42
2018-08-09T16:21:51.473Z,28.23
2018-08-09T16:24:19.477Z,27.30
2018-08-09T16:26:47.461Z,27.07
2018-08-09T16:29:16.275Z,27.15
2018-08-09T16:31:44.272Z,27.41
2018-08-09T16:34:12.318Z,27.57
2018-08-09T16:36:40.428Z,27.78
2018-08-09T16:39:11.560Z,27.73
2018-08-09T16:41:39.613Z,27.55
2018-08-09T16:44:07.929Z,27.34
2018-08-09T16:46:35.960Z,27.18
2018-08-09T16:49:03.976Z,26.98
2018-08-09T16:51:32.047Z,26.89
2018-08-09T16:54:00.072Z,26.87
2018-08-09T16:56:28.175Z,26.95
2018-08-09T16:58:56.160Z,27.02
2018-08-09T17:01:24.168Z,27.09
2018-08-09T17:03:52.621Z,27.23
2018-08-09T17:06:21.064Z,27.16
2018-08-09T17:08:49.476Z,27.28
2018-08-09T17:11:17.517Z,27.24
2018-08-09T17:13:45.549Z,27.13
2018-08-09T17:16:13.612Z,27.23
2018-08-09T17:18:41.633Z,27.05
2018-08-09T17:21:09.648Z,26.93
2018-08-09T17:23:37.684Z,26.85
2018-08-09T17:26:05.700Z,26.83
2018-08-09T17:28:33.727Z,26.89
2018-08-09T17:31:01.761Z,27.02
2018-08-09T17:33:29.768Z,27.23
2018-08-09T17:35:57.828Z,27.13
2018-08-09T17:38:25.820Z,27.29
2018-08-09T17:40:53.826Z,27.36
2018-08-09T17:43:21.831Z,27.29
2018-08-09T17:45:49.809Z,27.13
2018-08-09T17:48:17.800Z,27.05
2018-08-09T17:50:45.792Z,27.10
2018-08-09T17:53:13.818Z,27.11
2018-08-09T17:55:41.804Z,27.03
2018-08-09T17:58:09.825Z,26.98
2018-08-09T18:00:37.886Z,26.92
2018-08-09T18:03:05.983Z,26.90
2018-08-09T18:05:34.035Z,26.97
2018-08-09T18:08:02.475Z,27.00
2018-08-09T18:10:33.117Z,26.98
2018-08-09T18:13:01.110Z,27.06
2018-08-09T18:15:29.922Z,27.03
2018-08-09T18:17:58.461Z,27.01
2018-08-09T18:20:29.408Z,26.90
2018-08-09T18:22:57.480Z,26.69
2018-08-09T18:25:25.575Z,26.55
2018-08-09T18:27:53.748Z,26.42
2018-08-09T18:30:21.999Z,26.48
2018-08-09T18:32:50.086Z,26.48
2018-08-09T18:35:18.960Z,26.38
2018-08-09T18:37:46.956Z,26.26
2018-08-09T18:40:16.841Z,26.05
2018-08-09T18:42:44.848Z,25.71
2018-08-09T18:45:12.913Z,25.73
2018-08-09T18:47:41.289Z,25.61
2018-08-09T18:50:14.794Z,25.61
2018-08-09T18:52:42.900Z,25.38
2018-08-09T18:55:11.760Z,25.45
2018-08-09T18:57:40.284Z,25.33
2018-08-09T19:00:15.263Z,25.36
2018-08-09T19:02:44.784Z,25.42
2018-08-09T19:05:12.784Z,25.40
2018-08-09T19:07:40.817Z,25.40
2018-08-09T19:10:10.864Z,25.07
2018-08-09T19:12:38.920Z,25.17
2018-08-09T19:15:08.315Z,24.98
2018-08-09T19:17:36.917Z,25.11
2018-08-09T19:20:06.576Z,25.11
2018-08-09T19:22:34.677Z,25.01
2018-08-09T19:25:02.829Z,24.95
2018-08-09T19:30:36.136Z,24.94
2018-08-09T19:33:04.138Z,24.82
2018-08-09T19:35:32.195Z,24.96
2018-08-09T19:38:00.241Z,24.78
2018-08-09T19:40:29.340Z,24.83
2018-08-09T19:42:57.431Z,24.52
2018-08-09T19:45:25.457Z,24.40
2018-08-09T19:47:53.482Z,24.60
2018-08-09T19:50:22.784Z,24.50
2018-08-09T19:52:50.801Z,24.50
2018-08-09T19:55:20.258Z,24.56
2018-08-09T19:57:49.119Z,24.46
2018-08-09T20:00:20.416Z,24.33
2018-08-09T20:02:49.025Z,24.32
2018-08-09T20:05:17.164Z,24.15
2018-08-09T20:07:45.155Z,23.94
2018-08-09T20:10:13.608Z,23.88
2018-08-09T20:12:41.984Z,23.88
2018-08-09T20:15:13.232Z,23.80
2018-08-09T20:17:41.513Z,23.80
2018-08-09T20:22:37.108Z,23.81
2018-08-09T20:25:06.554Z,23.88
2018-08-09T20:27:34.584Z,23.88
2018-08-09T20:30:02.612Z,23.92
2018-08-09T20:32:30.649Z,24.00
2018-08-09T20:34:58.884Z,23.95
2018-08-09T20:37:26.898Z,23.97
2018-08-09T20:39:54.912Z,23.88
2018-08-09T20:42:22.996Z,24.00
2018-08-09T20:44:51.009Z,23.87
2018-08-09T20:47:19.014Z,23.73
2018-08-09T20:49:47.073Z,23.71
2018-08-09T20:52:15.060Z,23.70
2018-08-09T20:54:43.054Z,23.77
2018-08-09T20:57:11.181Z,23.72
2018-08-09T20:59:39.268Z,23.61
2018-08-09T21:02:07.268Z,23.62
2018-08-09T21:04:35.548Z,23.64
2018-08-09T21:07:03.573Z,23.60
2018-08-09T21:09:31.644Z,23.57
2018-08-09T21:11:59.668Z,23.49
2018-08-09T21:14:27.796Z,23.43
2018-08-09T21:16:55.805Z,23.57
2018-08-09T21:19:23.820Z,23.47
2018-08-09T21:21:51.841Z,23.39
2018-08-09T21:24:19.857Z,23.44
2018-08-09T21:26:47.853Z,23.47
2018-08-09T21:29:15.909Z,23.47
2018-08-09T21:31:43.908Z,23.39
2018-08-09T21:34:12.013Z,23.25
2018-08-09T21:36:40.058Z,23.22
2018-08-09T21:39:09.538Z,23.35
2018-08-09T21:41:37.554Z,23.49
2018-08-09T21:44:05.564Z,23.52
2018-08-09T21:46:33.581Z,23.44
2018-08-09T21:49:01.937Z,23.36
2018-08-09T21:51:30.034Z,23.21
2018-08-09T21:53:58.029Z,23.10
2018-08-09T21:56:26.060Z,22.94
2018-08-09T21:58:54.057Z,22.87
2018-08-09T22:01:22.172Z,22.73
2018-08-09T22:03:50.172Z,22.65
2018-08-09T22:06:23.525Z,22.53
2018-08-09T22:08:56.897Z,22.44
2018-08-09T22:11:30.244Z,22.18
2018-08-09T22:14:03.692Z,22.01
2018-08-09T22:16:37.238Z,22.01
2018-08-09T22:19:10.881Z,21.90
2018-08-09T22:21:45.318Z,22.04
2018-08-09T22:24:13.399Z,21.90
2018-08-09T22:26:41.472Z,21.82
2018-08-09T22:29:09.561Z,21.81
2018-08-09T22:31:37.560Z,21.70
2018-08-09T22:34:05.609Z,21.72
2018-08-09T22:36:33.682Z,21.67
2018-08-09T22:39:01.682Z,21.54
2018-08-09T22:41:29.704Z,21.63
2018-08-09T22:43:57.764Z,21.58
2018-08-09T22:46:25.769Z,21.52
2018-08-09T22:48:53.773Z,21.43
2018-08-09T22:51:21.793Z,21.41
2018-08-09T22:53:49.848Z,21.26
2018-08-09T22:56:17.861Z,21.33
2018-08-09T22:58:45.943Z,21.37
2018-08-09T23:01:13.960Z,21.28
2018-08-09T23:03:42.114Z,21.13
2018-08-09T23:06:10.170Z,21.00
2018-08-09T23:08:38.169Z,20.95
2018-08-09T23:11:06.461Z,20.93
2018-08-09T23:13:34.551Z,20.93
2018-08-09T23:16:02.644Z,20.87
2018-08-09T23:18:30.692Z,20.84
2018-08-09T23:20:58.799Z,20.74
2018-08-09T23:23:26.801Z,20.73
2018-08-09T23:25:54.803Z,20.83
2018-08-09T23:28:23.944Z,20.84
2018-08-09T23:30:51.933Z,20.83
2018-08-09T23:33:22.552Z,20.77
2018-08-09T23:35:50.555Z,20.86
2018-08-09T23:38:18.567Z,20.92
2018-08-09T23:40:46.553Z,20.93
2018-08-09T23:43:14.573Z,20.93
2018-08-09T23:45:42.624Z,20.98
2018-08-09T23:48:10.624Z,20.87
2018-08-09T23:50:38.644Z,20.74
2018-08-09T23:53:06.665Z,20.71
2018-08-09T23:55:34.680Z,20.63
2018-08-09T23:58:02.732Z,20.70
